Airfield :
LOGIN :

Register | Disclaimer

   EN    FR    IT 

 










Legend :    VFR   Marginal VFR   IFR   Intensive IFR   Very Intensive IFR
Visi :
Ceiling :
>= 8 km
>= 3000ft
5 to 8 km
1000 to 3000 ft
1500m to 5 km
500 to 1000 ft
800 to 1500m
200 to 500 ft
< 800m
< 200 ft
Symbols :   Thunderstorms  Fog  Heavy snow  Heavy precipitations  Wind > 20 kt
SIGMETs :     Misc.  Thunderstorms  Icing  Turbulence  Mountain Waves  Volcanic Ashes






- Airport Elevation : 202 ft
- IATA code : LGW


EGKK - London Gatwick

CURRENT METAR :
  • 070350Z 34006KT 9999 BKN007 03/02 Q1022

EXPIRED METARs :
  • 070320Z 32006KT 9999 BKN009 03/02 Q1022
  • 070250Z 33007KT 9999 FEW010 SCT026 03/02 Q1023
  • 070220Z 34007KT 9999 BKN010 04/02 Q1023
  • 070150Z 34007KT 9999 BKN011 04/02 Q1023
  • 070120Z 35007KT 9999 BKN010 04/02 Q1023

TAF AMD TAF EGKK
Valid from the 07 at 03:00 until the 08 at 06:00 UTC


070308Z 0703/0806 34007KT 9999 SCT010
TEMPO 0703/0710 BKN007
TEMPO 0710/0713 BKN012
TEMPO 0800/0806 8000
PROB30
TEMPO 0802/0806 4000 BR MIFG



MET'MAP, your aeronautical weather chart ! - Copyright ORBIFLY December 2007 - Disclaimer

ORBIFLY MET'MAP TEAM :

Programming & Development : Alexandra Zaïnal
Original concept : Baudouin d'Aumeries
Technical & hardware support : Manuel Goepfert
Assistance : Marc-Olivier Méhu




SOURCES & CREDITS :

   NOAA